Time;durP1;ratioP1;P1;durP2;ratioP2;P2;SDS_P1;SDS_P2;PMS_P1;PMS_P2;Temp;Humidity;BMP_temperature;BMP_pressure;BME280_temperature;BME280_humidity;BME280_pressure;Samples;Min_cycle;Max_cycle;Signal;HPM_P1;HPM_P2
2023/06/24 00:05:04;;;;;;;6.85;4.28;;;;;;;16.72;59.80;101268.19;10196821;29;20499;-77
2023/06/24 00:10:08;;;;;;;5.63;5.13;;;;;;;16.69;59.28;101265.75;10205454;29;20078;-78
2023/06/24 00:15:11;;;;;;;6.53;4.63;;;;;;;16.25;60.77;101269.84;10199160;29;20040;-77
2023/06/24 00:20:17;;;;;;;8.30;4.20;;;;;;;16.27;62.73;101255.19;10199714;29;20464;-78
2023/06/24 00:25:20;;;;;;;10.80;4.75;;;;;;;16.20;63.04;101259.41;10199937;29;20063;-78
2023/06/24 00:30:23;;;;;;;8.00;4.93;;;;;;;15.89;63.99;101256.78;10201613;29;20048;-77
2023/06/24 00:35:28;;;;;;;5.00;4.40;;;;;;;15.81;64.40;101258.47;10198357;29;20044;-78
2023/06/24 00:40:31;;;;;;;5.13;4.38;;;;;;;16.08;64.38;101255.13;10195256;29;20063;-77
2023/06/24 00:45:35;;;;;;;5.97;4.80;;;;;;;16.23;64.57;101255.56;10200587;29;20060;-77
2023/06/24 00:50:42;;;;;;;6.38;5.57;;;;;;;16.28;63.59;101254.16;10220177;29;20068;-77
2023/06/24 00:55:46;;;;;;;9.18;5.30;;;;;;;16.09;64.20;101254.97;10206770;29;20507;-77
2023/06/24 01:00:57;;;;;;;6.15;5.55;;;;;;;15.96;65.19;101256.22;10205361;29;20054;-78
2023/06/24 01:06:01;;;;;;;6.40;5.38;;;;;;;15.44;67.34;101262.59;10208000;29;20040;-78
2023/06/24 01:11:04;;;;;;;7.35;5.90;;;;;;;15.39;67.54;101267.53;10218223;29;20392;-78
2023/06/24 01:16:14;;;;;;;8.02;5.90;;;;;;;15.50;67.79;101266.59;10210022;29;20054;-77
2023/06/24 01:21:32;;;;;;;6.28;5.32;;;;;;;15.52;67.95;101267.31;10216806;29;20051;-77
2023/06/24 01:27:04;;;;;;;7.80;5.28;;;;;;;15.57;68.65;101265.06;10201962;29;20048;-77
2023/06/24 01:32:15;;;;;;;6.80;6.07;;;;;;;15.61;67.91;101258.38;10205948;29;20130;-77
2023/06/24 01:37:21;;;;;;;7.07;5.50;;;;;;;15.65;68.00;101256.25;10217048;29;20039;-77
2023/06/24 01:42:24;;;;;;;8.82;6.05;;;;;;;15.57;67.60;101259.63;10220771;29;20056;-77
2023/06/24 01:47:30;;;;;;;7.63;6.03;;;;;;;15.53;68.08;101270.91;10202684;29;20843;-78
2023/06/24 01:52:35;;;;;;;8.73;6.63;;;;;;;15.45;68.41;101283.25;10192040;29;20058;-77
2023/06/24 01:57:39;;;;;;;10.48;7.47;;;;;;;15.29;68.48;101287.41;10192147;29;20055;-77
2023/06/24 02:02:46;;;;;;;12.43;7.88;;;;;;;15.33;68.66;101275.28;10215492;29;20052;-77
2023/06/24 02:07:51;;;;;;;15.38;7.63;;;;;;;15.42;68.26;101274.53;10218609;29;20048;-78
2023/06/24 02:12:55;;;;;;;11.75;7.10;;;;;;;15.34;68.10;101271.63;10203167;29;20126;-77
2023/06/24 02:18:02;;;;;;;8.40;6.63;;;;;;;15.20;68.40;101262.84;10197837;29;20067;-77
2023/06/24 02:23:08;;;;;;;10.10;7.32;;;;;;;15.25;68.44;101263.31;10189401;29;20063;-77
2023/06/24 02:28:11;;;;;;;10.82;6.88;;;;;;;15.29;68.32;101263.88;10196100;29;20040;-77
2023/06/24 02:33:16;;;;;;;10.50;6.85;;;;;;;15.28;68.37;101270.31;10187910;29;20044;-77
2023/06/24 02:38:20;;;;;;;9.27;6.45;;;;;;;15.24;68.58;101276.97;10189479;29;20130;-77
2023/06/24 02:43:23;;;;;;;8.80;6.63;;;;;;;15.19;68.34;101290.91;10191387;29;20048;-77
2023/06/24 02:48:31;;;;;;;9.82;7.07;;;;;;;15.09;68.42;101286.41;10207177;28;20527;-76
2023/06/24 02:53:36;;;;;;;9.02;6.65;;;;;;;15.00;68.72;101280.81;10186716;29;20056;-77
2023/06/24 02:58:40;;;;;;;9.45;6.80;;;;;;;14.82;69.47;101279.66;10189775;29;20052;-77
2023/06/24 03:03:54;;;;;;;15.55;6.88;;;;;;;14.71;69.68;101294.09;10186024;29;20047;-77
2023/06/24 03:08:58;;;;;;;8.77;7.05;;;;;;;14.73;70.78;101294.84;10178293;29;20083;-77
2023/06/24 03:14:02;;;;;;;14.68;8.02;;;;;;;14.75;71.43;101303.66;10194217;29;20435;-76
2023/06/24 03:19:15;;;;;;;14.18;8.13;;;;;;;14.74;71.34;101303.78;10198729;29;20609;-77
2023/06/24 03:24:18;;;;;;;9.82;7.35;;;;;;;14.73;71.46;101304.78;10207975;29;20036;-77
2023/06/24 03:29:24;;;;;;;11.25;8.10;;;;;;;14.71;71.59;101304.06;10206162;29;20052;-78
2023/06/24 03:34:36;;;;;;;11.57;7.25;;;;;;;14.73;71.63;101302.94;10188500;29;20144;-78
2023/06/24 03:39:39;;;;;;;10.52;7.88;;;;;;;14.84;71.58;101296.63;10212157;29;20048;-78
2023/06/24 03:44:42;;;;;;;12.23;7.57;;;;;;;14.90;71.63;101297.97;10202002;29;20079;-78
2023/06/24 03:49:46;;;;;;;12.43;7.68;;;;;;;14.89;71.39;101307.94;10195036;29;20912;-78
2023/06/24 03:54:50;;;;;;;17.38;8.60;;;;;;;14.92;71.19;101302.25;10197207;29;20075;-77
2023/06/24 03:59:52;;;;;;;8.50;6.55;;;;;;;15.02;71.80;101302.31;10196423;29;20077;-78
2023/06/24 04:04:58;;;;;;;9.90;6.18;;;;;;;15.31;71.33;101312.50;10192787;29;20575;-77
2023/06/24 04:10:01;;;;;;;10.80;6.10;;;;;;;15.50;69.96;101317.19;10191482;29;20043;-77
2023/06/24 04:15:05;;;;;;;8.60;5.28;;;;;;;15.66;68.67;101315.72;10192355;29;20044;-76
2023/06/24 04:20:11;;;;;;;8.60;5.97;;;;;;;15.64;68.04;101306.00;10186834;29;20048;-77
2023/06/24 04:25:14;;;;;;;7.57;5.65;;;;;;;15.63;67.81;101310.56;10200812;29;20550;-77
2023/06/24 04:30:17;;;;;;;10.00;6.13;;;;;;;15.65;67.73;101310.41;10199763;29;20048;-77
2023/06/24 04:35:21;;;;;;;8.15;5.57;;;;;;;15.80;67.90;101317.22;10195855;29;20055;-77
2023/06/24 04:40:24;;;;;;;7.90;5.47;;;;;;;15.90;68.11;101322.66;10200728;29;20058;-77
2023/06/24 04:45:26;;;;;;;9.90;6.28;;;;;;;15.97;68.02;101315.69;10201137;29;20115;-77
2023/06/24 04:50:31;;;;;;;12.85;6.47;;;;;;;15.97;68.10;101314.84;10192721;29;20488;-78
2023/06/24 04:55:34;;;;;;;10.90;6.50;;;;;;;15.97;68.01;101320.25;10208731;29;20303;-77
2023/06/24 05:00:37;;;;;;;9.52;6.55;;;;;;;15.97;68.15;101318.41;10214815;29;20550;-77
2023/06/24 05:05:41;;;;;;;12.30;7.10;;;;;;;16.07;67.32;101330.16;10204402;29;20043;-77
2023/06/24 05:10:45;;;;;;;9.70;6.05;;;;;;;16.04;67.25;101322.25;10204988;29;20135;-78
2023/06/24 05:15:48;;;;;;;7.80;6.43;;;;;;;16.07;67.62;101323.84;10201760;29;20070;-77
2023/06/24 05:20:52;;;;;;;14.10;6.15;;;;;;;16.27;67.80;101322.09;10196848;29;20072;-77
2023/06/24 05:25:55;;;;;;;9.32;6.47;;;;;;;16.39;68.24;101315.56;10192571;29;20451;-78
2023/06/24 05:30:58;;;;;;;13.02;6.82;;;;;;;16.46;67.50;101319.44;10196722;29;20051;-78
2023/06/24 05:36:02;;;;;;;8.00;6.28;;;;;;;16.65;67.38;101315.88;10204941;29;20050;-78
2023/06/24 05:41:05;;;;;;;7.90;6.97;;;;;;;16.82;67.21;101322.47;10212358;29;20483;-77
2023/06/24 05:46:08;;;;;;;9.85;6.57;;;;;;;16.84;67.13;101327.72;10209160;29;20043;-78
2023/06/24 05:51:12;;;;;;;9.00;6.72;;;;;;;16.87;65.54;101331.03;10199916;29;20044;-77
2023/06/24 05:56:15;;;;;;;10.57;7.10;;;;;;;16.93;65.24;101322.31;10192473;29;20040;-78
2023/06/24 06:01:18;;;;;;;10.02;6.47;;;;;;;17.02;66.32;101321.44;10199637;29;20052;-77
2023/06/24 06:06:22;;;;;;;13.98;6.90;;;;;;;17.30;66.79;101328.88;10209069;29;20123;-78
2023/06/24 06:11:25;;;;;;;7.57;6.10;;;;;;;17.47;65.42;101329.00;10231982;28;20515;-78
2023/06/24 06:16:28;;;;;;;11.00;7.07;;;;;;;17.50;65.57;101321.53;10215540;29;20487;-78
2023/06/24 06:21:32;;;;;;;8.48;6.80;;;;;;;17.69;64.80;101333.22;10211927;29;20051;-78
2023/06/24 06:26:35;;;;;;;10.13;6.70;;;;;;;17.91;64.25;101336.59;10209508;29;20050;-76
2023/06/24 06:31:39;;;;;;;9.23;7.13;;;;;;;18.20;63.77;101328.31;10197714;29;20115;-76
2023/06/24 06:36:43;;;;;;;9.65;6.65;;;;;;;18.49;61.94;101332.72;10192593;29;20104;-77
2023/06/24 06:41:46;;;;;;;8.70;6.43;;;;;;;18.79;62.00;101326.09;10197234;29;20131;-77
2023/06/24 06:46:51;;;;;;;10.65;7.30;;;;;;;19.18;62.34;101326.59;10199192;29;20464;-77
2023/06/24 06:51:56;;;;;;;10.45;6.43;;;;;;;19.34;60.49;101334.03;10203765;29;20043;-77
2023/06/24 06:57:01;;;;;;;9.07;6.88;;;;;;;19.58;58.33;101332.50;10203702;29;20036;-78
2023/06/24 07:02:04;;;;;;;10.07;7.00;;;;;;;19.78;58.25;101338.63;10199027;29;20566;-78
2023/06/24 07:07:09;;;;;;;11.95;6.78;;;;;;;20.07;59.04;101319.16;10200588;29;20050;-79
2023/06/24 07:12:13;;;;;;;10.98;6.65;;;;;;;20.41;56.95;101324.59;10204990;29;20067;-78
2023/06/24 07:17:16;;;;;;;7.78;6.35;;;;;;;20.66;57.01;101324.66;10222669;29;20068;-79
2023/06/24 07:22:20;;;;;;;10.00;6.43;;;;;;;21.17;56.87;101325.38;10224312;29;20047;-80
2023/06/24 07:27:23;;;;;;;8.40;5.88;;;;;;;22.52;54.48;101320.91;10238955;29;20055;-79
2023/06/24 07:32:26;;;;;;;6.45;5.75;;;;;;;24.16;50.38;101319.38;10236477;29;20071;-81
2023/06/24 07:37:30;;;;;;;9.88;7.25;;;;;;;24.88;46.28;101329.53;10229525;29;20051;-81
2023/06/24 07:42:33;;;;;;;7.90;6.30;;;;;;;25.41;45.01;101335.53;10234472;29;20062;-80
2023/06/24 07:47:36;;;;;;;7.22;6.53;;;;;;;25.29;45.32;101324.25;10228058;29;20035;-80
2023/06/24 07:52:40;;;;;;;9.90;6.50;;;;;;;25.78;44.45;101333.47;10225948;29;20043;-81
2023/06/24 07:57:46;;;;;;;7.53;6.25;;;;;;;25.24;46.32;101325.88;10232168;29;20148;-80
2023/06/24 08:02:49;;;;;;;6.45;5.85;;;;;;;25.50;43.48;101327.97;10231868;29;20071;-80
2023/06/24 08:07:53;;;;;;;7.40;5.95;;;;;;;24.95;44.83;101331.28;10231542;29;20044;-80
2023/06/24 08:12:56;;;;;;;6.38;5.18;;;;;;;25.10;44.59;101330.41;10229219;29;20056;-80
2023/06/24 08:17:59;;;;;;;7.43;5.57;;;;;;;24.81;45.29;101321.22;10219918;29;20563;-80
2023/06/24 08:23:04;;;;;;;7.95;6.22;;;;;;;24.91;45.35;101323.66;10229125;29;20455;-80
2023/06/24 08:28:09;;;;;;;9.80;7.63;;;;;;;23.26;48.17;101331.31;10231132;29;20095;-80
2023/06/24 08:33:12;;;;;;;9.77;7.00;;;;;;;24.16;46.69;101320.22;10236185;29;20487;-80
2023/06/24 08:38:17;;;;;;;7.95;6.72;;;;;;;25.31;44.36;101316.63;10234070;29;20100;-80
2023/06/24 08:43:19;;;;;;;7.32;6.60;;;;;;;24.98;45.27;101317.19;10226521;29;20051;-79
2023/06/24 08:48:24;;;;;;;9.63;6.80;;;;;;;25.25;44.80;101306.41;10222304;29;20052;-79
2023/06/24 08:53:30;;;;;;;7.13;6.18;;;;;;;25.48;43.39;101299.81;10228115;29;20138;-78
2023/06/24 08:58:32;;;;;;;8.55;6.78;;;;;;;25.55;43.67;101297.97;10226871;29;20048;-78
2023/06/24 09:03:35;;;;;;;9.15;6.95;;;;;;;25.07;44.80;101297.84;10227683;29;20044;-79
2023/06/24 09:08:41;;;;;;;8.85;6.00;;;;;;;25.51;44.98;101291.19;10220542;29;20055;-78
2023/06/24 09:13:44;;;;;;;6.15;5.53;;;;;;;26.30;43.04;101293.53;10221998;29;20062;-79
2023/06/24 09:18:49;;;;;;;6.57;5.25;;;;;;;27.24;42.78;101283.50;10222983;29;20058;-79
2023/06/24 09:23:54;;;;;;;5.78;5.07;;;;;;;26.00;40.65;101285.56;10225922;29;20068;-79
2023/06/24 09:28:58;;;;;;;6.72;5.70;;;;;;;26.56;40.93;101280.91;10226206;29;20055;-79
2023/06/24 09:34:01;;;;;;;5.85;5.25;;;;;;;27.01;39.62;101267.38;10223564;29;20092;-79
2023/06/24 09:39:08;;;;;;;7.40;5.13;;;;;;;27.07;39.79;101283.06;10223596;29;20039;-80
2023/06/24 09:44:31;;;;;;;7.60;5.70;;;;;;;26.38;40.46;101270.44;10219933;29;20072;-80
2023/06/24 09:49:34;;;;;;;7.00;5.15;;;;;;;27.13;39.83;101269.31;10219603;29;20127;-79
2023/06/24 09:54:38;;;;;;;9.43;4.72;;;;;;;27.65;39.65;101271.38;10220922;29;20056;-80
2023/06/24 09:59:43;;;;;;;7.47;4.30;;;;;;;28.52;38.85;101266.34;10224631;29;20081;-80
2023/06/24 10:04:47;;;;;;;7.30;5.32;;;;;;;28.68;38.09;101263.88;10233110;29;20048;-80
2023/06/24 10:09:52;;;;;;;9.73;6.05;;;;;;;29.00;37.69;101254.72;10232775;29;20039;-80
2023/06/24 10:14:55;;;;;;;7.80;5.60;;;;;;;28.70;37.02;101249.84;10231785;29;20393;-80
2023/06/24 10:19:58;;;;;;;6.90;5.18;;;;;;;28.16;38.74;101246.53;10220169;29;20044;-81
2023/06/24 10:25:07;;;;;;;8.23;7.22;;;;;;;28.12;38.30;101247.22;10212368;29;20046;-79
2023/06/24 10:30:18;;;;;;;10.65;6.72;;;;;;;28.13;37.80;101232.34;10215101;29;20411;-81
2023/06/24 10:35:25;;;;;;;8.45;5.95;;;;;;;29.10;38.63;101222.75;10209491;29;20127;-80
2023/06/24 10:40:38;;;;;;;6.15;5.50;;;;;;;28.82;39.35;101217.63;10214026;29;20070;-81
2023/06/24 10:45:49;;;;;;;7.07;6.22;;;;;;;30.58;36.58;101206.84;10214413;29;20066;-81
2023/06/24 10:50:52;;;;;;;7.95;6.47;;;;;;;29.80;35.76;101221.56;10212498;29;20059;-82
2023/06/24 10:55:59;;;;;;;7.85;6.13;;;;;;;30.39;37.11;101202.41;10238226;29;20067;-83
2023/06/24 11:01:09;;;;;;;5.38;4.88;;;;;;;31.03;36.75;101194.34;10221683;29;20050;-84
2023/06/24 11:06:13;;;;;;;7.63;5.97;;;;;;;30.72;35.40;101195.53;10216734;29;20071;-83
2023/06/24 11:11:22;;;;;;;7.45;5.82;;;;;;;31.54;33.61;101187.16;10214358;29;20123;-82
2023/06/24 11:16:25;;;;;;;8.13;5.70;;;;;;;30.02;34.80;101186.75;10204341;29;20046;-83
2023/06/24 11:21:31;;;;;;;4.97;4.55;;;;;;;30.84;34.84;101172.28;10211206;29;20207;-82
2023/06/24 11:26:36;;;;;;;7.97;5.70;;;;;;;29.54;37.33;101178.44;10208411;29;20049;-82
2023/06/24 11:31:39;;;;;;;7.32;5.57;;;;;;;29.78;36.52;101177.47;10226663;29;20056;-82
2023/06/24 11:36:43;;;;;;;7.50;5.25;;;;;;;30.02;36.40;101183.97;10212391;29;20051;-82
2023/06/24 11:41:47;;;;;;;9.13;5.35;;;;;;;28.67;38.53;101175.69;10211444;29;20111;-80
2023/06/24 11:46:52;;;;;;;8.48;6.03;;;;;;;29.84;34.26;101172.09;10199832;29;20044;-81
2023/06/24 11:51:55;;;;;;;6.78;5.22;;;;;;;29.98;35.27;101159.78;10213726;29;20048;-82
2023/06/24 11:56:59;;;;;;;6.28;5.68;;;;;;;30.39;34.88;101156.19;10206139;29;20545;-83
2023/06/24 12:02:03;;;;;;;7.70;5.63;;;;;;;31.62;34.78;101152.63;10211297;29;20134;-81
2023/06/24 12:07:06;;;;;;;8.82;5.35;;;;;;;27.88;38.62;101146.63;10224974;29;20127;-82
2023/06/24 12:12:11;;;;;;;6.15;5.55;;;;;;;28.64;36.95;101149.34;10210084;29;20052;-82
2023/06/24 12:17:14;;;;;;;9.85;5.35;;;;;;;30.37;35.26;101138.09;10222597;29;20047;-82
2023/06/24 12:22:20;;;;;;;7.82;5.50;;;;;;;30.23;36.07;101132.75;10231514;29;20076;-82
2023/06/24 12:27:24;;;;;;;5.38;4.88;;;;;;;30.46;36.45;101134.72;10212747;29;20048;-82
2023/06/24 12:32:27;;;;;;;6.13;5.22;;;;;;;31.39;35.50;101129.41;10236013;29;20120;-83
2023/06/24 12:37:31;;;;;;;5.50;5.00;;;;;;;32.83;32.66;101122.63;10239968;29;20051;-84
2023/06/24 12:42:35;;;;;;;5.50;5.10;;;;;;;33.14;33.56;101116.69;10213223;29;20043;-84
2023/06/24 12:47:38;;;;;;;6.60;5.05;;;;;;;33.04;32.49;101114.56;10212828;29;20041;-82
2023/06/24 12:52:41;;;;;;;5.72;4.60;;;;;;;32.70;32.58;101119.38;10221173;29;20063;-83
2023/06/24 12:57:46;;;;;;;5.20;4.70;;;;;;;31.22;34.25;101123.78;10237860;29;20043;-83
2023/06/24 13:02:49;;;;;;;8.07;5.35;;;;;;;31.38;32.98;101113.88;10228710;29;20327;-83
2023/06/24 13:07:52;;;;;;;5.75;5.25;;;;;;;32.13;31.96;101112.81;10218606;29;20043;-77
2023/06/24 13:12:56;;;;;;;6.88;4.45;;;;;;;33.30;31.55;101108.25;10220690;29;20040;-82
2023/06/24 13:18:01;;;;;;;5.43;4.65;;;;;;;32.95;29.02;101103.03;10218326;29;20129;-82
2023/06/24 13:23:04;;;;;;;5.32;4.80;;;;;;;31.09;32.92;101107.38;10230896;29;20052;-80
2023/06/24 13:28:08;;;;;;;6.57;5.75;;;;;;;31.37;32.12;101108.53;10229421;29;20044;-82
2023/06/24 13:33:11;;;;;;;6.38;5.03;;;;;;;31.79;31.41;101101.66;10225390;29;20103;-82
2023/06/24 13:38:14;;;;;;;4.82;4.32;;;;;;;31.50;32.42;101103.56;10221058;29;20044;-82
2023/06/24 13:43:19;;;;;;;5.65;5.15;;;;;;;29.72;33.28;101092.59;10224086;29;20123;-81
2023/06/24 13:48:21;;;;;;;6.43;5.22;;;;;;;30.52;32.30;101096.03;10228950;29;20047;-81
2023/06/24 13:53:24;;;;;;;5.95;5.45;;;;;;;32.11;31.48;101083.59;10231103;29;20044;-81
2023/06/24 13:58:29;;;;;;;5.78;5.28;;;;;;;31.89;31.32;101078.75;10221441;29;20070;-82
2023/06/24 14:03:32;;;;;;;6.47;5.97;;;;;;;30.91;32.14;101084.25;10226833;29;20047;-82
2023/06/24 14:08:35;;;;;;;7.00;5.90;;;;;;;30.92;32.83;101085.09;10229077;29;20166;-81
2023/06/24 14:13:40;;;;;;;7.43;5.45;;;;;;;32.64;31.08;101073.91;10213406;29;20503;-82
2023/06/24 14:18:44;;;;;;;8.25;5.15;;;;;;;34.09;29.66;101061.50;10213194;29;20443;-83
2023/06/24 14:23:47;;;;;;;6.13;5.63;;;;;;;30.93;32.17;101070.13;10213468;29;20111;-82
2023/06/24 14:28:51;;;;;;;6.38;4.90;;;;;;;32.37;31.45;101052.38;10217248;29;20048;-83
2023/06/24 14:33:54;;;;;;;5.22;4.82;;;;;;;33.60;30.35;101051.25;10207698;29;20563;-83
2023/06/24 14:38:57;;;;;;;5.80;5.15;;;;;;;32.18;31.21;101051.78;10219554;29;20052;-81
2023/06/24 14:44:02;;;;;;;8.77;7.10;;;;;;;31.37;32.16;101053.88;10207713;29;20055;-83
2023/06/24 14:49:05;;;;;;;6.93;6.22;;;;;;;29.65;34.76;101061.41;10197390;29;20035;-82
2023/06/24 14:54:08;;;;;;;7.40;6.75;;;;;;;29.55;35.56;101047.25;10214042;29;20048;-82
2023/06/24 14:59:12;;;;;;;6.78;6.18;;;;;;;30.73;33.40;101045.56;10208385;29;20476;-83
2023/06/24 15:04:15;;;;;;;6.63;5.85;;;;;;;32.11;32.41;101037.19;10217095;29;20075;-83
2023/06/24 15:09:18;;;;;;;6.45;5.43;;;;;;;32.62;32.65;101028.84;10217207;29;20110;-82
2023/06/24 15:14:22;;;;;;;6.10;5.60;;;;;;;33.10;30.70;101028.13;10212341;29;20052;-83
2023/06/24 15:19:25;;;;;;;6.72;5.68;;;;;;;34.08;30.87;101026.34;10210716;29;20047;-85
2023/06/24 15:24:28;;;;;;;6.60;6.10;;;;;;;33.93;30.85;101024.28;10213410;29;20113;-83
2023/06/24 15:29:32;;;;;;;6.10;5.50;;;;;;;33.37;32.68;101032.03;10204967;29;20130;-84
2023/06/24 15:34:37;;;;;;;5.97;5.32;;;;;;;34.00;31.31;101016.53;10209142;29;20142;-83
2023/06/24 15:39:40;;;;;;;6.18;5.68;;;;;;;32.70;32.14;101016.47;10204229;29;20040;-84
2023/06/24 15:44:44;;;;;;;6.25;5.65;;;;;;;33.46;32.68;101013.75;10217531;29;20530;-84
2023/06/24 15:49:47;;;;;;;6.28;5.63;;;;;;;32.43;31.55;101003.25;10213299;29;20055;-85
2023/06/24 15:54:50;;;;;;;6.22;5.38;;;;;;;32.46;31.49;100999.97;10229053;29;20092;-82
2023/06/24 15:59:54;;;;;;;6.60;6.00;;;;;;;32.71;31.47;100998.66;10220842;29;20051;-83
2023/06/24 16:04:57;;;;;;;6.65;5.07;;;;;;;32.76;32.57;100998.75;10213477;29;20048;-82
2023/06/24 16:10:00;;;;;;;6.43;5.82;;;;;;;31.38;34.42;101002.84;10217606;29;20099;-82
2023/06/24 16:15:06;;;;;;;7.13;6.13;;;;;;;30.47;35.30;101003.41;10220808;29;20526;-81
2023/06/24 16:20:14;;;;;;;7.93;5.63;;;;;;;30.40;35.05;100997.13;10225932;29;20032;-83
2023/06/24 16:25:17;;;;;;;7.80;6.25;;;;;;;30.31;36.16;100997.75;10220441;29;20040;-83
2023/06/24 16:30:21;;;;;;;11.77;6.45;;;;;;;29.69;36.74;100987.88;10211394;29;20036;-82
2023/06/24 16:35:24;;;;;;;8.93;6.50;;;;;;;30.55;35.55;100988.28;10236818;29;20062;-82
2023/06/24 16:40:27;;;;;;;6.93;6.22;;;;;;;33.37;33.76;100977.22;10224412;29;20055;-82
2023/06/24 16:45:36;;;;;;;8.07;6.45;;;;;;;38.23;26.00;100976.59;10219141;29;20099;-82
2023/06/24 16:50:39;;;;;;;6.97;6.28;;;;;;;39.17;26.38;100968.44;10221229;29;20119;-81
2023/06/24 16:55:42;;;;;;;6.30;5.80;;;;;;;40.69;24.76;100960.44;10219928;29;20059;-82
2023/06/24 17:00:46;;;;;;;6.43;5.63;;;;;;;40.01;25.70;100970.44;10214087;29;20048;-80
2023/06/24 17:05:49;;;;;;;6.95;6.10;;;;;;;40.79;24.82;100958.56;10218722;29;20052;-81
2023/06/24 17:10:52;;;;;;;6.07;5.53;;;;;;;40.11;24.73;100961.81;10213255;29;20054;-82
2023/06/24 17:15:56;;;;;;;5.30;4.80;;;;;;;39.34;25.15;100967.06;10211061;29;20044;-81
2023/06/24 17:20:59;;;;;;;7.13;6.40;;;;;;;40.57;24.30;100957.34;10210262;29;20055;-81
2023/06/24 17:26:02;;;;;;;8.55;6.35;;;;;;;40.89;24.46;100945.06;10224936;29;20067;-80
2023/06/24 17:31:06;;;;;;;6.75;6.13;;;;;;;41.06;23.95;100947.25;10230453;29;20099;-79
2023/06/24 17:36:09;;;;;;;5.80;5.30;;;;;;;40.37;25.34;100954.88;10227333;29;20064;-81
2023/06/24 17:41:12;;;;;;;5.90;5.40;;;;;;;39.25;26.07;100952.88;10217721;29;20054;-81
2023/06/24 17:46:17;;;;;;;7.68;5.32;;;;;;;38.33;27.15;100960.47;10205025;29;20048;-82
2023/06/24 17:51:20;;;;;;;6.07;5.47;;;;;;;36.24;29.29;100954.22;10218955;29;20525;-81
2023/06/24 17:56:24;;;;;;;8.32;5.72;;;;;;;33.21;32.48;100959.50;10207392;29;20072;-81
2023/06/24 18:01:29;;;;;;;7.82;6.03;;;;;;;31.54;34.94;100965.94;10217308;29;20050;-82
2023/06/24 18:06:32;;;;;;;6.38;5.88;;;;;;;30.45;37.09;100957.59;10217432;29;20055;-80
2023/06/24 18:11:35;;;;;;;5.95;5.45;;;;;;;29.45;38.45;100956.50;10212481;29;20040;-77
2023/06/24 18:16:48;;;;;;;6.22;5.40;;;;;;;28.73;40.02;100959.16;10219548;29;20044;-80
2023/06/24 18:21:51;;;;;;;7.40;5.85;;;;;;;28.25;40.01;100954.38;10242313;29;20035;-81
2023/06/24 18:26:54;;;;;;;8.07;5.78;;;;;;;27.92;41.37;100947.22;10235868;29;20456;-80
2023/06/24 18:31:58;;;;;;;6.57;6.05;;;;;;;27.74;41.86;100953.50;10212739;29;20080;-80
2023/06/24 18:37:01;;;;;;;8.48;6.10;;;;;;;27.54;41.93;100941.81;10209577;29;20064;-78
2023/06/24 18:42:05;;;;;;;6.40;5.80;;;;;;;27.28;42.91;100943.63;10210488;29;20048;-79
2023/06/24 18:47:09;;;;;;;7.10;6.45;;;;;;;27.07;43.42;100930.16;10227194;29;20423;-79
2023/06/24 18:52:12;;;;;;;7.03;6.45;;;;;;;26.92;45.31;100934.06;10224532;29;20040;-80
2023/06/24 18:57:15;;;;;;;7.22;6.50;;;;;;;26.65;45.92;100933.31;10223499;29;20183;-80
2023/06/24 19:02:20;;;;;;;8.25;6.82;;;;;;;26.42;45.87;100930.22;10219396;29;20047;-79
2023/06/24 19:07:23;;;;;;;7.95;6.70;;;;;;;26.26;46.26;100935.13;10224614;29;20070;-80
2023/06/24 19:12:26;;;;;;;7.05;6.15;;;;;;;26.06;45.72;100935.13;10219135;29;20076;-80
2023/06/24 19:17:30;;;;;;;7.88;6.32;;;;;;;25.89;46.13;100924.75;10227856;29;20051;-79
2023/06/24 19:22:33;;;;;;;7.85;6.63;;;;;;;25.80;46.27;100926.88;10217513;29;20066;-79
2023/06/24 19:27:37;;;;;;;6.28;5.80;;;;;;;25.69;46.78;100930.28;10224114;29;20055;-80
2023/06/24 19:32:43;;;;;;;7.32;6.45;;;;;;;25.55;47.01;100933.00;10226582;29;20046;-79
2023/06/24 19:37:47;;;;;;;6.88;6.25;;;;;;;25.43;47.57;100928.34;10222534;29;20071;-79
2023/06/24 19:42:50;;;;;;;6.30;5.75;;;;;;;25.30;48.01;100920.91;10227586;29;20039;-81
2023/06/24 19:47:54;;;;;;;7.13;6.43;;;;;;;25.11;48.59;100926.16;10223013;29;20036;-78
2023/06/24 19:52:57;;;;;;;8.88;6.90;;;;;;;25.03;48.67;100934.59;10202182;29;20032;-79
2023/06/24 19:58:00;;;;;;;7.65;6.93;;;;;;;24.85;48.99;100931.50;10209246;29;20103;-78
2023/06/24 20:03:05;;;;;;;8.10;7.30;;;;;;;24.72;49.43;100932.34;10205723;29;20047;-77
2023/06/24 20:08:08;;;;;;;8.25;6.97;;;;;;;24.72;49.02;100935.91;10203257;29;20048;-76
2023/06/24 20:13:11;;;;;;;8.02;7.00;;;;;;;24.68;49.86;100933.78;10203052;29;20046;-77
2023/06/24 20:18:17;;;;;;;6.85;6.15;;;;;;;24.49;50.36;100933.50;10197860;29;20063;-76
2023/06/24 20:23:20;;;;;;;7.88;7.18;;;;;;;24.22;50.75;100939.84;10194186;29;20048;-76
2023/06/24 20:28:23;;;;;;;8.00;7.30;;;;;;;24.12;51.42;100931.13;10190377;29;20052;-77
2023/06/24 20:33:28;;;;;;;10.30;7.25;;;;;;;24.08;51.68;100936.16;10193619;29;20068;-77
2023/06/24 20:38:30;;;;;;;8.57;7.68;;;;;;;24.17;51.72;100929.47;10195570;29;20048;-76
2023/06/24 20:43:33;;;;;;;8.80;7.60;;;;;;;24.07;51.79;100929.81;10195088;29;20082;-77
2023/06/24 20:48:37;;;;;;;8.75;7.28;;;;;;;23.95;52.10;100920.44;10192348;29;20047;-76
2023/06/24 20:53:40;;;;;;;8.65;7.78;;;;;;;23.86;52.24;100925.25;10197326;29;20046;-77
2023/06/24 20:58:43;;;;;;;8.90;8.05;;;;;;;23.79;53.30;100926.22;10182891;29;20066;-77
2023/06/24 21:03:48;;;;;;;8.60;7.80;;;;;;;23.63;53.50;100924.59;10182999;29;20499;-76
2023/06/24 21:08:51;;;;;;;9.23;7.70;;;;;;;23.50;53.56;100930.78;10195942;29;20048;-76
2023/06/24 21:13:53;;;;;;;8.63;7.80;;;;;;;23.26;53.81;100931.16;10193482;29;20039;-76
2023/06/24 21:18:58;;;;;;;9.07;8.27;;;;;;;23.04;54.49;100931.13;10196672;29;20048;-76
2023/06/24 21:24:02;;;;;;;10.13;9.13;;;;;;;22.95;55.07;100921.31;10200909;29;20520;-76
2023/06/24 21:29:05;;;;;;;9.38;8.55;;;;;;;22.98;54.90;100916.34;10197269;29;20051;-76
2023/06/24 21:34:09;;;;;;;9.50;8.65;;;;;;;22.98;55.57;100918.19;10189740;29;20040;-76
2023/06/24 21:39:12;;;;;;;9.85;8.85;;;;;;;22.90;55.38;100915.56;10194359;29;20040;-76
2023/06/24 21:44:15;;;;;;;11.50;8.95;;;;;;;22.82;55.99;100927.50;10196873;29;20047;-76
2023/06/24 21:49:19;;;;;;;12.18;9.18;;;;;;;22.70;56.32;100929.03;10200285;29;20151;-76
2023/06/24 21:54:22;;;;;;;10.88;9.68;;;;;;;22.44;57.05;100926.81;10196365;29;20515;-76
2023/06/24 21:59:27;;;;;;;11.32;9.70;;;;;;;22.51;56.84;100927.72;10198214;29;20526;-76
2023/06/24 22:04:31;;;;;;;11.02;9.82;;;;;;;22.40;57.44;100919.97;10195574;29;20524;-75
2023/06/24 22:09:34;;;;;;;13.70;10.57;;;;;;;22.41;57.78;100925.25;10185706;29;20064;-75
2023/06/24 22:14:37;;;;;;;12.45;10.45;;;;;;;22.30;57.63;100920.25;10183830;29;20419;-76
2023/06/24 22:19:41;;;;;;;11.27;10.18;;;;;;;22.15;57.83;100917.50;10194193;29;20067;-75
2023/06/24 22:24:45;;;;;;;11.80;9.88;;;;;;;22.08;58.25;100906.47;10193807;29;20035;-75
2023/06/24 22:29:48;;;;;;;11.18;10.07;;;;;;;22.15;58.56;100914.78;10196160;29;20063;-75
2023/06/24 22:34:52;;;;;;;10.85;9.70;;;;;;;22.11;58.37;100921.66;10190713;29;20043;-76
2023/06/24 22:39:55;;;;;;;11.52;9.82;;;;;;;21.84;59.09;100918.50;10186326;29;20035;-76
2023/06/24 22:44:58;;;;;;;12.25;10.75;;;;;;;21.72;59.41;100917.25;10188061;29;20523;-76
2023/06/24 22:50:03;;;;;;;11.18;10.15;;;;;;;21.73;59.40;100910.72;10188902;29;20040;-75
2023/06/24 22:55:07;;;;;;;11.05;9.95;;;;;;;21.74;59.37;100912.41;10190794;29;20044;-75
2023/06/24 23:00:10;;;;;;;11.15;10.00;;;;;;;21.70;59.45;100913.84;10193101;29;20046;-76
2023/06/24 23:05:16;;;;;;;11.65;9.80;;;;;;;21.64;59.43;100917.31;10194105;29;20066;-75
2023/06/24 23:10:20;;;;;;;11.27;10.15;;;;;;;21.60;59.76;100915.97;10192896;29;20044;-76
2023/06/24 23:15:24;;;;;;;11.38;9.95;;;;;;;21.52;60.40;100908.69;10184064;29;20052;-75